Lempster, New Hampshire
Current Conditions -  °F | °C
As of 1:19 AM on Sunday 26 Oct 2014 (Local Time) from KVSF Reporting Station
Haze Haze  
Wind Chill: 37°   Ceiling: 200
Heat Index: 41°   Visibility: 0.75mi
Dew Point: 41°   Wind: 6mph
Humidity: 100%   Direction: 70°ENE
Pressure: 29.47"   Gusts: NA
Location:  43.24°N, 72.21°W
Report Text: KVSF 260519Z AUTO 07005KT 3/4SM BR VV002 05/05 A2947 RMK AO2 T00500050
Loading
Personal Weather Stations






























Interactive Weather Map
Tropical Storm Tracking
New forecast layout! Learn more

10-Day Weather Forecast

Advertisements
Track Severe Weather on mobile